createdAt,value
2018-03-27T00:02:26.987Z,14.63
2018-03-27T00:04:54.615Z,14.30
2018-03-27T00:07:22.179Z,14.20
2018-03-27T00:09:49.721Z,14.20
2018-03-27T00:12:17.363Z,14.10
2018-03-27T00:14:44.899Z,14.20
2018-03-27T00:17:12.465Z,13.87
2018-03-27T00:19:40.005Z,14.30
2018-03-27T00:22:07.567Z,14.02
2018-03-27T00:24:41.833Z,14.87
2018-03-27T00:27:09.118Z,14.95
2018-03-27T00:29:48.319Z,13.23
2018-03-27T00:32:27.717Z,13.87
2018-03-27T00:35:06.953Z,14.87
2018-03-27T00:37:46.301Z,15.13
2018-03-27T00:40:25.592Z,15.48
2018-03-27T00:42:54.137Z,15.03
2018-03-27T00:45:21.716Z,15.43
2018-03-27T00:47:49.337Z,14.57
2018-03-27T00:50:16.896Z,13.57
2018-03-27T00:52:44.416Z,14.23
2018-03-27T00:55:11.993Z,14.50
2018-03-27T00:57:39.515Z,14.57
2018-03-27T01:00:07.077Z,14.00
2018-03-27T01:02:34.603Z,13.73
2018-03-27T01:05:07.808Z,13.90
2018-03-27T01:07:35.327Z,13.07
2018-03-27T01:10:02.884Z,14.47
2018-03-27T01:12:30.421Z,14.33
2018-03-27T01:14:58.118Z,14.98
2018-03-27T01:17:25.653Z,14.70
2018-03-27T01:19:53.225Z,14.23
2018-03-27T01:22:20.766Z,13.63
2018-03-27T01:24:48.332Z,14.50
2018-03-27T01:27:15.848Z,12.17
2018-03-27T01:29:43.427Z,12.30
2018-03-27T01:32:11.503Z,12.95
2018-03-27T01:34:39.082Z,12.60
2018-03-27T01:37:06.612Z,11.33
2018-03-27T01:39:34.223Z,13.27
2018-03-27T01:42:01.743Z,14.40
2018-03-27T01:44:29.298Z,14.33
2018-03-27T01:46:56.819Z,12.60
2018-03-27T01:49:24.364Z,15.00
2018-03-27T01:51:51.904Z,14.97
2018-03-27T01:54:19.470Z,14.15
2018-03-27T01:56:46.984Z,11.90
2018-03-27T01:59:14.595Z,11.63
2018-03-27T02:01:42.152Z,12.77
2018-03-27T02:04:09.709Z,10.73
2018-03-27T02:06:37.228Z,11.00
2018-03-27T02:09:04.806Z,12.03
2018-03-27T02:11:37.852Z,12.43
2018-03-27T02:14:10.896Z,13.70
2018-03-27T02:16:44.032Z,14.53
2018-03-27T02:19:17.428Z,14.02
2018-03-27T02:21:44.395Z,13.00
2018-03-27T02:24:12.368Z,11.53
2018-03-27T02:26:39.879Z,10.60
2018-03-27T02:29:07.452Z,9.97
2018-03-27T02:31:34.987Z,9.50
2018-03-27T02:34:02.585Z,8.95
2018-03-27T02:36:30.103Z,8.33
2018-03-27T02:38:57.639Z,9.07
2018-03-27T02:41:25.195Z,9.27
2018-03-27T02:43:52.737Z,8.93
2018-03-27T02:46:20.301Z,9.07
2018-03-27T02:48:47.903Z,8.83
2018-03-27T02:51:15.557Z,11.03
2018-03-27T02:53:43.072Z,12.50
2018-03-27T02:56:10.625Z,12.07
2018-03-27T02:58:38.156Z,11.70
2018-03-27T03:01:05.730Z,11.40
2018-03-27T03:03:33.280Z,10.93
2018-03-27T03:06:00.847Z,11.50
2018-03-27T03:08:28.405Z,11.17
2018-03-27T03:10:56.068Z,10.63
2018-03-27T03:13:23.672Z,10.55
2018-03-27T03:15:51.298Z,9.90
2018-03-27T03:18:18.824Z,11.23
2018-03-27T03:20:46.376Z,11.50
2018-03-27T03:23:13.925Z,12.00
2018-03-27T03:25:41.983Z,13.52
2018-03-27T03:28:09.512Z,12.93
2018-03-27T03:30:37.122Z,12.93
2018-03-27T03:33:04.649Z,13.30
2018-03-27T03:35:32.220Z,13.13
2018-03-27T03:37:59.751Z,12.05
2018-03-27T03:40:27.317Z,13.30
2018-03-27T03:42:54.838Z,11.83
2018-03-27T03:45:22.438Z,12.80
2018-03-27T03:47:49.956Z,13.27
2018-03-27T03:50:17.603Z,13.13
2018-03-27T03:52:45.134Z,13.50
2018-03-27T03:55:12.727Z,13.30
2018-03-27T03:57:40.269Z,12.83
2018-03-27T04:00:07.820Z,11.60
2018-03-27T04:02:35.337Z,12.57
2018-03-27T04:05:02.868Z,12.07
2018-03-27T04:07:30.427Z,13.03
2018-03-27T04:09:57.978Z,11.37
2018-03-27T04:12:25.537Z,11.98
2018-03-27T04:14:53.073Z,11.97
2018-03-27T04:17:20.631Z,11.07
2018-03-27T04:19:48.148Z,11.77
2018-03-27T04:22:16.082Z,11.43
2018-03-27T04:24:43.660Z,12.43
2018-03-27T04:27:11.234Z,11.80
2018-03-27T04:29:38.764Z,12.70
2018-03-27T04:32:06.327Z,12.60
2018-03-27T04:34:33.874Z,13.90
2018-03-27T04:37:01.433Z,14.43
2018-03-27T04:39:28.974Z,13.68
2018-03-27T04:41:56.557Z,14.40
2018-03-27T04:44:24.082Z,14.63
2018-03-27T04:46:51.642Z,13.17
2018-03-27T04:49:19.604Z,15.00
2018-03-27T04:51:47.164Z,13.63
2018-03-27T04:54:14.691Z,15.27
2018-03-27T04:56:42.269Z,15.30
2018-03-27T04:59:09.869Z,14.33
2018-03-27T05:01:37.431Z,14.38
2018-03-27T05:04:05.020Z,13.63
2018-03-27T05:06:32.605Z,14.20
2018-03-27T05:09:00.129Z,14.57
2018-03-27T05:11:27.706Z,14.93
2018-03-27T05:13:55.231Z,14.83
2018-03-27T05:16:22.812Z,13.40
2018-03-27T05:18:50.341Z,15.40
2018-03-27T05:23:51.592Z,17.05
2018-03-27T05:26:19.694Z,16.23
2018-03-27T05:28:47.214Z,17.30
2018-03-27T05:31:14.772Z,14.97
2018-03-27T05:33:42.302Z,16.13
2018-03-27T05:36:09.893Z,16.30
2018-03-27T05:38:37.445Z,15.47
2018-03-27T05:41:05.016Z,15.00
2018-03-27T05:43:32.562Z,15.07
2018-03-27T05:46:00.084Z,14.73
2018-03-27T05:48:27.638Z,14.10
2018-03-27T05:50:55.170Z,14.27
2018-03-27T05:53:22.784Z,16.17
2018-03-27T05:55:51.279Z,14.93
2018-03-27T05:58:19.538Z,15.63
2018-03-27T06:00:47.164Z,17.97
2018-03-27T06:03:14.727Z,17.17
2018-03-27T06:05:42.245Z,17.90
2018-03-27T06:08:09.807Z,16.65
2018-03-27T06:10:37.335Z,17.57
2018-03-27T06:13:05.211Z,17.35
2018-03-27T06:15:32.743Z,22.07
2018-03-27T06:18:00.296Z,23.07
2018-03-27T06:20:27.831Z,20.63
2018-03-27T06:22:56.150Z,17.97
2018-03-27T06:25:23.701Z,16.93
2018-03-27T06:27:51.269Z,16.40
2018-03-27T06:30:18.924Z,16.13
2018-03-27T06:32:46.479Z,17.23
2018-03-27T06:35:14.256Z,24.07
2018-03-27T06:37:41.930Z,20.90
2018-03-27T06:40:09.463Z,20.08
2018-03-27T06:42:37.088Z,19.43
2018-03-27T06:45:04.819Z,18.33
2018-03-27T06:47:33.789Z,18.70
2018-03-27T06:50:01.522Z,18.37
2018-03-27T06:52:29.091Z,19.70
2018-03-27T06:54:57.339Z,18.42
2018-03-27T06:57:24.902Z,17.20
2018-03-27T06:59:52.634Z,18.80
2018-03-27T07:02:20.388Z,18.20
2018-03-27T07:04:48.184Z,18.10
2018-03-27T07:07:15.813Z,18.03
2018-03-27T07:09:43.761Z,19.03
2018-03-27T07:12:11.442Z,16.93
2018-03-27T07:14:38.970Z,16.77
2018-03-27T07:17:06.520Z,15.55
2018-03-27T07:19:34.181Z,16.07
2018-03-27T07:22:01.699Z,16.40
2018-03-27T07:24:29.395Z,16.30
2018-03-27T07:26:58.055Z,16.77
2018-03-27T07:29:25.826Z,14.60
2018-03-27T07:31:53.895Z,18.37
2018-03-27T07:34:21.482Z,15.53
2018-03-27T07:36:50.040Z,16.17
2018-03-27T07:39:17.770Z,15.23
2018-03-27T07:41:45.316Z,16.57
2018-03-27T07:44:13.843Z,17.27
2018-03-27T07:46:41.678Z,19.90
2018-03-27T07:49:09.243Z,18.80
2018-03-27T07:51:36.828Z,19.10
2018-03-27T07:54:04.398Z,21.60
2018-03-27T07:56:31.920Z,18.53
2018-03-27T07:58:59.551Z,17.63
2018-03-27T08:01:27.088Z,19.53
2018-03-27T08:03:55.110Z,20.37
2018-03-27T08:06:22.668Z,19.63
2018-03-27T08:08:50.253Z,22.27
2018-03-27T08:11:17.932Z,22.90
2018-03-27T08:13:45.567Z,24.27
2018-03-27T08:16:13.091Z,23.20
2018-03-27T08:18:40.713Z,22.90
2018-03-27T08:21:08.230Z,24.43
2018-03-27T08:23:41.952Z,23.33
2018-03-27T08:26:12.093Z,24.42
2018-03-27T08:28:40.556Z,24.77
2018-03-27T08:31:09.513Z,26.87
2018-03-27T08:33:40.591Z,27.80
2018-03-27T08:36:10.145Z,27.67
2018-03-27T08:38:40.931Z,30.55
2018-03-27T08:41:11.901Z,30.02
2018-03-27T08:43:42.811Z,27.70
2018-03-27T08:46:11.578Z,27.03
2018-03-27T08:48:41.857Z,27.37
2018-03-27T08:51:11.517Z,27.13
2018-03-27T08:53:40.734Z,28.08
2018-03-27T08:56:11.823Z,29.10
2018-03-27T08:58:41.289Z,28.50
2018-03-27T09:01:12.241Z,29.20
2018-03-27T09:03:42.376Z,28.33
2018-03-27T09:06:12.340Z,30.37
2018-03-27T09:08:41.619Z,34.45
2018-03-27T09:11:12.171Z,34.30
2018-03-27T09:13:44.149Z,36.60
2018-03-27T09:16:13.379Z,38.23
2018-03-27T09:18:42.412Z,38.07
2018-03-27T09:21:10.916Z,39.67
2018-03-27T09:23:41.100Z,38.63
2018-03-27T09:26:10.171Z,41.00
2018-03-27T09:28:40.114Z,40.93
2018-03-27T09:31:07.980Z,38.43
2018-03-27T09:33:38.182Z,40.97
2018-03-27T09:36:09.323Z,40.63
2018-03-27T09:38:39.108Z,40.77
2018-03-27T09:41:08.130Z,40.20
2018-03-27T09:43:36.028Z,42.60
2018-03-27T09:46:04.653Z,40.50
2018-03-27T09:48:35.365Z,40.27
2018-03-27T09:51:04.889Z,40.27
2018-03-27T09:53:35.201Z,39.65
2018-03-27T09:56:02.979Z,39.38
2018-03-27T09:58:38.646Z,40.16
2018-03-27T10:01:11.349Z,40.03
2018-03-27T10:03:39.650Z,37.63
2018-03-27T10:06:13.008Z,38.30
2018-03-27T10:08:44.403Z,38.43
2018-03-27T10:11:12.257Z,39.00
2018-03-27T10:13:44.946Z,37.55
2018-03-27T10:16:17.139Z,37.93
2018-03-27T10:18:44.837Z,38.37
2018-03-27T10:21:15.731Z,38.80
2018-03-27T10:23:45.470Z,39.03
2018-03-27T10:26:13.098Z,35.60
2018-03-27T10:28:42.066Z,35.13
2018-03-27T10:31:11.450Z,36.80
2018-03-27T10:33:39.347Z,35.17
2018-03-27T10:36:07.185Z,32.80
2018-03-27T10:38:36.816Z,30.40
2018-03-27T10:41:04.394Z,30.33
2018-03-27T10:43:31.935Z,28.77
2018-03-27T10:45:59.739Z,27.17
2018-03-27T10:48:27.861Z,24.70
2018-03-27T10:50:56.943Z,28.70
2018-03-27T10:53:26.206Z,28.63
2018-03-27T10:55:53.943Z,28.70
2018-03-27T10:58:21.477Z,26.23
2018-03-27T11:00:49.054Z,24.73
2018-03-27T11:03:16.702Z,24.73
2018-03-27T11:05:44.551Z,27.93
2018-03-27T11:08:12.131Z,25.20
2018-03-27T11:10:39.939Z,29.03
2018-03-27T11:13:10.524Z,27.00
2018-03-27T11:15:38.726Z,26.33
2018-03-27T11:18:07.350Z,31.10
2018-03-27T11:20:35.168Z,29.13
2018-03-27T11:23:02.812Z,28.80
2018-03-27T11:25:30.424Z,29.77
2018-03-27T11:28:00.274Z,32.10
2018-03-27T11:30:28.730Z,23.47
2018-03-27T11:32:56.413Z,33.20
2018-03-27T11:35:24.013Z,27.00
2018-03-27T11:37:53.856Z,23.80
2018-03-27T11:40:21.665Z,28.80
2018-03-27T11:42:50.443Z,29.27
2018-03-27T11:45:18.359Z,22.53
2018-03-27T11:47:47.782Z,26.67
2018-03-27T11:50:20.146Z,23.75
2018-03-27T11:52:47.849Z,22.73
2018-03-27T11:55:15.564Z,27.20
2018-03-27T11:57:43.912Z,34.53
2018-03-27T12:00:11.475Z,29.40
2018-03-27T12:02:39.129Z,29.53
2018-03-27T12:05:06.968Z,24.13
2018-03-27T12:07:34.942Z,25.57
2018-03-27T12:10:02.558Z,24.97
2018-03-27T12:12:31.845Z,27.07
2018-03-27T12:15:00.346Z,25.10
2018-03-27T12:17:28.145Z,25.77
2018-03-27T12:19:56.575Z,24.92
2018-03-27T12:22:24.176Z,26.17
2018-03-27T12:24:51.764Z,21.80
2018-03-27T12:27:19.312Z,26.03
2018-03-27T12:29:48.124Z,26.03
2018-03-27T12:32:16.583Z,21.70
2018-03-27T12:34:44.228Z,24.10
2018-03-27T12:37:11.853Z,22.45
2018-03-27T12:39:39.655Z,20.97
2018-03-27T12:42:07.220Z,20.02
2018-03-27T12:44:35.051Z,25.20
2018-03-27T12:47:05.868Z,25.20
2018-03-27T12:49:34.008Z,25.48
2018-03-27T12:52:01.820Z,23.10
2018-03-27T12:54:31.378Z,21.53
2018-03-27T12:56:58.949Z,27.40
2018-03-27T12:59:27.951Z,30.05
2018-03-27T13:01:55.512Z,24.57
2018-03-27T13:04:23.030Z,25.83
2018-03-27T13:06:53.402Z,23.57
2018-03-27T13:09:22.039Z,25.73
2018-03-27T13:11:53.125Z,23.58
2018-03-27T13:14:20.867Z,27.07
2018-03-27T13:16:49.453Z,29.30
2018-03-27T13:19:17.002Z,24.27
2018-03-27T13:21:46.985Z,25.07
2018-03-27T13:24:14.985Z,25.70
2018-03-27T13:26:45.146Z,23.55
2018-03-27T13:29:12.707Z,24.53
2018-03-27T13:31:45.689Z,23.17
2018-03-27T13:34:18.489Z,22.92
2018-03-27T13:36:47.044Z,23.80
2018-03-27T13:41:55.021Z,24.73
2018-03-27T13:44:23.071Z,22.93
2018-03-27T13:46:52.771Z,25.70
2018-03-27T13:49:21.033Z,27.17
2018-03-27T13:51:50.995Z,23.43
2018-03-27T13:54:19.178Z,27.40
2018-03-27T13:56:46.784Z,26.20
2018-03-27T13:59:14.309Z,27.53
2018-03-27T14:01:42.066Z,26.73
2018-03-27T14:04:09.595Z,27.87
2018-03-27T14:06:40.521Z,27.13
2018-03-27T14:09:11.911Z,28.43
2018-03-27T14:11:42.635Z,28.33
2018-03-27T14:14:14.065Z,26.90
2018-03-27T14:16:44.084Z,27.63
2018-03-27T14:19:13.653Z,28.92
2018-03-27T14:21:45.734Z,26.57
2018-03-27T14:24:15.163Z,27.00
2018-03-27T14:26:43.476Z,24.90
2018-03-27T14:29:13.107Z,25.33
2018-03-27T14:31:47.142Z,24.93
2018-03-27T14:34:17.325Z,26.55
2018-03-27T14:36:48.396Z,26.40
2018-03-27T14:39:17.669Z,25.30
2018-03-27T14:41:48.435Z,25.13
2018-03-27T14:44:16.353Z,26.40
2018-03-27T14:46:44.964Z,27.67
2018-03-27T14:49:14.038Z,27.17
2018-03-27T14:51:42.975Z,27.73
2018-03-27T14:54:12.693Z,28.53
2018-03-27T14:56:43.675Z,26.27
2018-03-27T14:59:12.327Z,27.03
2018-03-27T15:01:41.206Z,24.80
2018-03-27T15:04:10.653Z,21.95
2018-03-27T15:06:41.365Z,22.83
2018-03-27T15:09:09.754Z,24.10
2018-03-27T15:11:39.782Z,23.83
2018-03-27T15:14:10.862Z,24.57
2018-03-27T15:16:38.600Z,24.70
2018-03-27T15:19:06.165Z,25.30
2018-03-27T15:21:35.284Z,25.03
2018-03-27T15:24:03.468Z,23.38
2018-03-27T15:26:32.266Z,25.30
2018-03-27T15:29:00.944Z,25.10
2018-03-27T15:31:30.202Z,24.27
2018-03-27T15:34:01.147Z,24.50
2018-03-27T15:36:30.059Z,23.05
2018-03-27T15:39:02.709Z,24.60
2018-03-27T15:41:32.592Z,25.40
2018-03-27T15:44:02.811Z,23.07
2018-03-27T15:46:32.660Z,24.43
2018-03-27T15:49:02.123Z,23.17
2018-03-27T15:51:33.382Z,24.90
2018-03-27T15:54:05.164Z,25.12
2018-03-27T15:56:35.543Z,25.40
2018-03-27T15:59:05.548Z,26.10
2018-03-27T16:01:38.995Z,24.10
2018-03-27T16:04:09.802Z,25.10
2018-03-27T16:06:42.604Z,25.70
2018-03-27T16:09:12.587Z,26.93
2018-03-27T16:11:40.860Z,28.30
2018-03-27T16:14:08.714Z,27.87
2018-03-27T16:16:43.298Z,27.57
2018-03-27T16:21:53.516Z,27.02
2018-03-27T16:24:21.489Z,27.50
2018-03-27T16:26:49.928Z,27.70
2018-03-27T16:29:19.632Z,27.03
2018-03-27T16:31:48.925Z,27.30
2018-03-27T16:34:21.826Z,27.97
2018-03-27T16:36:52.386Z,27.13
2018-03-27T16:39:27.529Z,26.87
2018-03-27T16:41:56.966Z,29.20
2018-03-27T16:44:28.531Z,27.27
2018-03-27T16:46:57.917Z,28.27
2018-03-27T16:49:26.082Z,27.57
2018-03-27T16:51:58.337Z,27.57
2018-03-27T16:54:28.042Z,28.97
2018-03-27T16:56:55.654Z,28.47
2018-03-27T16:59:23.539Z,27.70
2018-03-27T17:01:51.111Z,29.43
2018-03-27T17:04:18.865Z,28.33
2018-03-27T17:06:46.438Z,27.00
2018-03-27T17:09:17.528Z,28.45
2018-03-27T17:11:45.411Z,28.17
2018-03-27T17:14:13.447Z,25.92
2018-03-27T17:16:41.508Z,26.50
2018-03-27T17:19:12.374Z,25.43
2018-03-27T17:21:40.126Z,25.77
2018-03-27T17:24:09.907Z,25.47
2018-03-27T17:26:37.838Z,25.60
2018-03-27T17:29:06.228Z,26.13
2018-03-27T17:31:33.763Z,26.10
2018-03-27T17:34:02.481Z,26.65
2018-03-27T17:36:31.342Z,28.03
2018-03-27T17:38:59.514Z,27.40
2018-03-27T17:41:27.071Z,24.10
2018-03-27T17:43:54.872Z,27.95
2018-03-27T17:46:22.848Z,27.60
2018-03-27T17:48:50.619Z,28.57
2018-03-27T17:51:18.415Z,26.20
2018-03-27T17:53:46.588Z,26.67
2018-03-27T17:56:14.614Z,26.73
2018-03-27T17:58:42.160Z,25.97
2018-03-27T18:01:09.683Z,25.43
2018-03-27T18:03:39.493Z,25.67
2018-03-27T18:06:08.109Z,24.43
2018-03-27T18:08:35.842Z,23.23
2018-03-27T18:11:06.221Z,24.97
2018-03-27T18:13:40.581Z,24.53
2018-03-27T18:16:10.619Z,25.08
2018-03-27T18:18:41.740Z,24.98
2018-03-27T18:21:10.070Z,26.73
2018-03-27T18:23:37.667Z,25.60
2018-03-27T18:26:05.726Z,23.33
2018-03-27T18:28:33.267Z,22.90
2018-03-27T18:31:00.870Z,22.53
2018-03-27T18:33:28.359Z,23.57
2018-03-27T18:35:55.921Z,22.63
2018-03-27T18:38:23.472Z,22.97
2018-03-27T18:40:51.032Z,24.07
2018-03-27T18:43:18.569Z,25.33
2018-03-27T18:45:46.187Z,23.75
2018-03-27T18:48:13.733Z,25.53
2018-03-27T18:50:41.302Z,26.27
2018-03-27T18:53:08.864Z,26.17
2018-03-27T18:55:36.577Z,27.77
2018-03-27T18:58:04.140Z,30.93
2018-03-27T19:00:32.140Z,30.23
2018-03-27T19:02:59.768Z,29.90
2018-03-27T19:05:27.333Z,32.50
2018-03-27T19:07:54.854Z,33.97
2018-03-27T19:10:22.461Z,32.83
2018-03-27T19:12:49.967Z,31.10
2018-03-27T19:15:17.519Z,31.83
2018-03-27T19:17:45.048Z,31.43
2018-03-27T19:20:12.632Z,30.00
2018-03-27T19:22:40.166Z,32.07
2018-03-27T19:25:07.714Z,32.43
2018-03-27T19:27:35.291Z,30.07
2018-03-27T19:30:02.877Z,29.50
2018-03-27T19:32:30.420Z,29.73
2018-03-27T19:34:57.980Z,29.07
2018-03-27T19:37:25.497Z,30.90
2018-03-27T19:39:53.064Z,30.48
2018-03-27T19:42:20.604Z,30.60
2018-03-27T19:44:48.157Z,26.67
2018-03-27T19:47:15.686Z,28.08
2018-03-27T19:49:43.237Z,27.30
2018-03-27T19:52:10.808Z,25.87
2018-03-27T19:54:38.344Z,26.33
2018-03-27T19:57:05.980Z,25.97
2018-03-27T19:59:33.504Z,25.50
2018-03-27T20:02:01.068Z,26.00
2018-03-27T20:04:28.622Z,24.77
2018-03-27T20:06:56.203Z,26.92
2018-03-27T20:09:23.727Z,26.20
2018-03-27T20:11:51.572Z,27.33
2018-03-27T20:14:19.110Z,28.40
2018-03-27T20:16:47.296Z,22.63
2018-03-27T20:19:14.843Z,24.80
2018-03-27T20:21:42.417Z,26.27
2018-03-27T20:24:09.930Z,23.17
2018-03-27T20:26:37.490Z,21.93
2018-03-27T20:29:05.024Z,22.90
2018-03-27T20:31:32.595Z,22.93
2018-03-27T20:34:00.128Z,26.87
2018-03-27T20:36:27.688Z,25.13
2018-03-27T20:38:55.211Z,22.70
2018-03-27T20:41:22.843Z,25.10
2018-03-27T20:43:50.637Z,22.70
2018-03-27T20:46:18.181Z,22.23
2018-03-27T20:48:45.718Z,23.43
2018-03-27T20:51:13.273Z,22.00
2018-03-27T20:53:40.797Z,21.93
2018-03-27T20:56:08.353Z,29.87
2018-03-27T20:58:37.951Z,29.17
2018-03-27T21:01:06.053Z,22.63
2018-03-27T21:03:33.620Z,22.10
2018-03-27T21:06:01.208Z,24.00
2018-03-27T21:08:28.724Z,23.35
2018-03-27T21:10:56.275Z,24.10
2018-03-27T21:13:23.811Z,24.20
2018-03-27T21:15:51.368Z,24.67
2018-03-27T21:18:18.892Z,24.05
2018-03-27T21:20:46.421Z,23.70
2018-03-27T21:23:13.979Z,26.47
2018-03-27T21:25:41.500Z,23.47
2018-03-27T21:28:09.067Z,23.60
2018-03-27T21:30:36.619Z,24.33
2018-03-27T21:33:04.186Z,21.47
2018-03-27T21:35:31.884Z,23.03
2018-03-27T21:37:59.483Z,23.03
2018-03-27T21:40:27.012Z,24.15
2018-03-27T21:42:54.586Z,21.20
2018-03-27T21:45:22.127Z,23.50
2018-03-27T21:47:50.047Z,21.90
2018-03-27T21:50:17.598Z,20.53
2018-03-27T21:52:45.152Z,23.03
2018-03-27T21:55:13.215Z,21.53
2018-03-27T21:57:40.848Z,20.30
2018-03-27T22:00:08.477Z,20.75
2018-03-27T22:02:36.104Z,22.73
2018-03-27T22:05:03.926Z,21.70
2018-03-27T22:07:32.216Z,20.13
2018-03-27T22:10:00.168Z,20.20
2018-03-27T22:12:28.034Z,25.27
2018-03-27T22:14:55.780Z,21.43
2018-03-27T22:17:23.345Z,20.93
2018-03-27T22:19:51.078Z,21.73
2018-03-27T22:22:18.807Z,21.50
2018-03-27T22:24:46.481Z,23.13
2018-03-27T22:27:14.080Z,27.70
2018-03-27T22:29:41.613Z,28.57
2018-03-27T22:32:09.175Z,28.97
2018-03-27T22:34:36.709Z,30.90
2018-03-27T22:37:04.285Z,22.87
2018-03-27T22:39:31.840Z,23.87
2018-03-27T22:41:59.371Z,25.90
2018-03-27T22:44:26.969Z,23.87
2018-03-27T22:46:54.512Z,23.70
2018-03-27T22:49:22.191Z,24.17
2018-03-27T22:51:49.811Z,24.05
2018-03-27T22:54:17.556Z,23.17
2018-03-27T22:56:45.084Z,22.85
2018-03-27T22:59:13.014Z,23.43
2018-03-27T23:01:41.010Z,18.00
2018-03-27T23:04:10.414Z,24.40
2018-03-27T23:06:37.971Z,22.77
2018-03-27T23:09:05.570Z,23.10
2018-03-27T23:11:35.817Z,21.15
2018-03-27T23:14:03.922Z,22.83
2018-03-27T23:16:32.194Z,21.77
2018-03-27T23:18:59.983Z,19.87
2018-03-27T23:21:27.557Z,20.47
2018-03-27T23:23:55.513Z,20.60
2018-03-27T23:26:23.112Z,21.33
2018-03-27T23:28:50.703Z,21.33
2018-03-27T23:31:18.933Z,21.20
2018-03-27T23:33:46.522Z,20.07
2018-03-27T23:36:14.476Z,16.70
2018-03-27T23:38:42.074Z,16.03
2018-03-27T23:41:09.593Z,17.10
2018-03-27T23:43:37.180Z,16.43
2018-03-27T23:46:06.238Z,16.67
2018-03-27T23:48:34.051Z,17.48
2018-03-27T23:51:01.615Z,16.33
2018-03-27T23:53:29.240Z,15.83
2018-03-27T23:55:56.764Z,14.57
2018-03-27T23:58:24.473Z,16.30
